Flight Track Log - Related Links

Times and Time Zones

All times are in EDT time to prevent confusion due to time zone crossing. See the N728SR flight status page for this flight to view local times or setup timezone preferences in your user account.

Time Position Orientation Groundspeed Altitude Reporting Facility
EDT Latitude Longitude Course Direction KTS MPH feet Rate Location/Type
Wed 11:42:29 AM 39.6011 -84.2214 302° West 100 115 1,400  Level Indianapolis Center
Wed 11:43:42 AM 39.6200 -84.2603 302° West 123 142 2,400 716 Climbing Indianapolis Center
Wed 11:44:43 AM 39.6303 -84.3028 287° West 130 150 3,000 516 Climbing Indianapolis Center
Wed 11:45:50 AM 39.6411 -84.3592 284° West 152 175 3,500 469 Climbing Indianapolis Center
Wed 11:46:51 AM 39.6514 -84.4183 283° West 158 182 4,000 492 Climbing Indianapolis Center
Wed 11:47:52 AM 39.6622 -84.4747 284° West 160 184 4,500 492 Climbing Indianapolis Center
Wed 11:48:53 AM 39.6731 -84.5286 285° West 159 183 5,000 522 Climbing Indianapolis Center
Wed 11:49:47 AM 39.6822 -84.5819 283° West 161 185 5,500 472 Climbing Indianapolis Center
Wed 11:50:22 AM 39.6872 -84.6044 286° West 161 185 5,700 375 Climbing Indianapolis Center
Wed 11:51:23 AM 39.6997 -84.6714 284° West 162 186 6,100 195 Climbing Indianapolis Center
Wed 11:52:25 AM 39.7111 -84.7322 284° West 169 194 6,100  Level Indianapolis Center
Wed 11:53:27 AM 39.7228 -84.7922 284° West 170 196 6,100  Level Indianapolis Center
Wed 11:54:29 AM 39.7328 -84.8542 282° West 172 198 6,100  Level Indianapolis Center
Wed 11:55:31 AM 39.7439 -84.9161 283° West 169 194 6,100 -48 Level Indianapolis Center
Wed 11:56:33 AM 39.7547 -84.9753 283° West 169 194 6,000 -48 Descending Indianapolis Center
Wed 11:57:35 AM 39.7658 -85.0344 284° West 170 196 6,000 48 Level Indianapolis Center
Wed 11:58:37 AM 39.7756 -85.0939 282° West 169 194 6,100 49 Climbing Indianapolis Center
Wed 11:59:38 AM 39.7867 -85.1525 284° West 169 194 6,100  Level Indianapolis Center
Wed 12:00:40 PM 39.7983 -85.2233 282° West 168 193 6,100  Level Indianapolis Center
Wed 12:01:42 PM 39.8094 -85.2817 284° West 168 193 6,100 -48 Level Indianapolis Center
Wed 12:02:44 PM 39.8203 -85.3419 283° West 169 194 6,000 -48 Descending Indianapolis Center
Wed 12:03:46 PM 39.8308 -85.4011 283° West 170 196 6,000  Level Indianapolis Center
Wed 12:04:48 PM 39.8411 -85.4603 283° West 169 194 6,000 48 Level Indianapolis Center
Wed 12:05:50 PM 39.8519 -85.5203 283° West 170 196 6,100  Climbing Indianapolis Center
Wed 12:06:52 PM 39.8644 -85.5919 283° West 170 196 6,000 -48 Descending Indianapolis Center
Wed 12:07:54 PM 39.8747 -85.6506 283° West 169 194 6,000 48 Level Indianapolis Center
Wed 12:08:56 PM 39.8856 -85.7106 283° West 169 194 6,100  Climbing Indianapolis Center
Wed 12:09:58 PM 39.8961 -85.7692 283° West 169 194 6,000  Descending Indianapolis Center
Wed 12:10:59 PM 39.9056 -85.8294 282° West 169 194 6,100  Climbing Indianapolis Center
Wed 12:12:01 PM 39.9167 -85.8886 284° West 169 194 6,000 -48 Descending Indianapolis Center
Wed 12:13:03 PM 39.9311 -85.9578 285° West 168 193 6,000  Level Indianapolis Center
Wed 12:14:05 PM 39.9586 -86.0047 307° West 166 191 6,000 48 Level Indianapolis Center
Wed 12:15:07 PM 39.9797 -86.0567 298° West 165 190 6,100  Climbing Indianapolis Center
Wed 12:16:09 PM 39.9836 -86.1178 275° West 170 196 6,000 -48 Descending Indianapolis Center
Wed 12:17:11 PM 39.9900 -86.1781 278° West 169 194 6,000  Level Indianapolis Center
Wed 12:18:13 PM 39.9942 -86.2508 274° West 169 194 6,000  Level Indianapolis Center
Wed 12:19:15 PM 39.9997 -86.3106 277° West 169 194 6,000 48 Level Indianapolis Center
Wed 12:20:17 PM 40.0119 -86.3686 285° West 167 192 6,100 49 Climbing Indianapolis Center
Wed 12:21:18 PM 40.0228 -86.4281 283° West 168 193 6,100 -49 Level Indianapolis Center
Wed 12:22:20 PM 40.0328 -86.4867 283° West 168 193 6,000 -48 Descending Indianapolis Center
Wed 12:23:22 PM 40.0453 -86.5578 283° West 168 193 6,000  Level Indianapolis Center
Wed 12:24:24 PM 40.0542 -86.6161 281° West 167 192 6,000  Level Indianapolis Center
Wed 12:25:26 PM 40.0639 -86.6753 282° West 167 192 6,000 48 Level Indianapolis Center
Wed 12:26:28 PM 40.0722 -86.7336 281° West 166 191 6,100  Climbing Indianapolis Center
Wed 12:27:30 PM 40.0822 -86.7925 283° West 166 191 6,000  Descending Indianapolis Center
Wed 12:28:32 PM 40.0919 -86.8514 282° West 166 191 6,100  Climbing Indianapolis Center
Wed 12:29:34 PM 40.1033 -86.9208 282° West 165 190 6,000 -49 Descending Indianapolis Center
Wed 12:30:35 PM 40.1139 -86.9803 283° West 167 192 6,000  Level Indianapolis Center
Wed 12:31:37 PM 40.1228 -87.0381 281° West 166 191 6,000  Level Indianapolis Center
Wed 12:32:39 PM 40.1325 -87.0969 282° West 166 191 6,000  Level Indianapolis Center
Wed 12:33:41 PM 40.1419 -87.1558 282° West 166 191 6,000  Level Indianapolis Center
Wed 12:34:43 PM 40.1514 -87.2153 282° West 167 192 6,000  Level Indianapolis Center
Wed 12:35:45 PM 40.1633 -87.2858 283° West 167 192 6,000  Level Indianapolis Center
Wed 12:36:46 PM 40.1719 -87.3458 281° West 168 193 6,000  Level Indianapolis Center
Wed 12:37:48 PM 40.1819 -87.4058 282° West 169 194 6,000  Level Indianapolis Center
Wed 12:38:50 PM 40.1903 -87.4661 280° West 169 194 6,000  Level Indianapolis Center
Wed 12:39:52 PM 40.2000 -87.5261 282° West 169 194 6,000  Level Indianapolis Center
Wed 12:40:54 PM 40.2097 -87.5864 282° West 170 196 6,000  Level Indianapolis Center
Wed 12:41:56 PM 40.2211 -87.6583 282° West 170 196 6,000  Level Indianapolis Center
Wed 12:42:57 PM 40.2300 -87.7183 281° West 169 194 6,000  Level Indianapolis Center
Wed 12:43:59 PM 40.2403 -87.7797 282° West 171 197 6,000  Level Indianapolis Center
Wed 12:45:01 PM 40.2492 -87.8411 281° West 172 198 6,000  Level Indianapolis Center
Wed 12:46:03 PM 40.2578 -87.9028 280° West 172 198 6,000  Level Indianapolis Center
Wed 12:47:05 PM 40.2669 -87.9636 281° West 172 198 6,000  Level Indianapolis Center
Wed 12:48:07 PM 40.2778 -88.0242 283° West 172 198 6,000  Level Indianapolis Center
Wed 12:49:30 PM 40.2953 -88.1219 283° West 171 197 6,000  Level Chicago Center
Wed 12:50:32 PM 40.3033 -88.1819 280° West 169 194 6,000  Level Chicago Center
Wed 12:51:34 PM 40.3139 -88.2419 283° West 169 194 6,000  Level Chicago Center
Wed 12:52:37 PM 40.3217 -88.3042 279° West 171 197 6,000  Level Chicago Center
Wed 12:53:39 PM 40.3261 -88.3675 275° West 173 199 6,000  Level Chicago Center
Wed 12:54:41 PM 40.3331 -88.4286 278° West 172 198 6,000  Level Chicago Center
Wed 12:55:43 PM 40.3453 -88.5069 282° West 177 204 6,000  Level Chicago Center
Wed 12:56:45 PM 40.3547 -88.5703 281° West 175 201 6,000  Level Chicago Center
Wed 12:57:47 PM 40.3633 -88.6328 280° West 174 200 6,000  Level Chicago Center
Wed 12:58:49 PM 40.3728 -88.6939 281° West 173 199 6,000  Level Chicago Center
Wed 12:59:53 PM 40.3817 -88.7564 281° West 173 199 6,000  Level Chicago Center
Wed 01:00:55 PM 40.3906 -88.8186 281° West 173 199 6,000  Level Chicago Center
Wed 01:01:57 PM 40.4019 -88.8933 281° West 174 200 6,000  Level Chicago Center
Wed 01:02:59 PM 40.4106 -88.9567 280° West 175 201 6,000  Level Chicago Center
Wed 01:04:01 PM 40.4200 -89.0186 281° West 174 200 6,000  Level Chicago Center
Wed 01:05:03 PM 40.4283 -89.0797 280° West 171 197 6,000  Level Chicago Center
Wed 01:06:06 PM 40.4369 -89.1422 280° West 173 199 6,000  Level Chicago Center
Wed 01:07:08 PM 40.4458 -89.2039 281° West 173 199 6,000  Level Chicago Center
Wed 01:08:10 PM 40.4567 -89.2794 281° West 175 201 6,000  Level Chicago Center
Wed 01:09:12 PM 40.4689 -89.3408 285° West 175 201 6,000  Level Chicago Center
Wed 01:10:14 PM 40.4725 -89.4033 274° West 172 198 6,000  Level Chicago Center
Wed 01:11:16 PM 40.4858 -89.4639 286° West 170 196 6,000  Level Chicago Center
Wed 01:12:18 PM 40.4989 -89.5242 286° West 171 197 6,000  Level Chicago Center
Wed 01:13:20 PM 40.5097 -89.5844 283° West 170 196 6,000  Level Chicago Center
Wed 01:14:22 PM 40.5194 -89.6586 280° West 171 197 6,000  Level Chicago Center
Wed 01:15:24 PM 40.5289 -89.7214 281° West 173 199 6,000  Level Chicago Center
Wed 01:16:26 PM 40.5342 -89.7842 276° West 173 199 6,000  Level Chicago Center
Wed 01:17:29 PM 40.5439 -89.8461 282° West 172 198 6,000  Level Chicago Center
Wed 01:18:31 PM 40.5528 -89.9083 281° West 171 197 6,000  Level Chicago Center
Wed 01:19:33 PM 40.5597 -89.9717 278° West 173 199 6,000  Level Chicago Center
Wed 01:20:35 PM 40.5683 -90.0333 280° West 172 198 6,000  Level Chicago Center
Wed 01:21:37 PM 40.5767 -90.0953 280° West 171 197 6,000  Level Chicago Center
Wed 01:22:39 PM 40.5867 -90.1694 280° West 171 197 6,000  Level Chicago Center
Wed 01:23:41 PM 40.5947 -90.2319 280° West 172 198 6,000  Level Chicago Center
Wed 01:24:43 PM 40.6017 -90.2925 279° West 170 196 6,000  Level Chicago Center
Wed 01:25:45 PM 40.6106 -90.3542 281° West 170 196 6,000  Level Chicago Center
Wed 01:26:47 PM 40.6186 -90.4153 280° West 170 196 6,000  Level Chicago Center
Wed 01:27:49 PM 40.6253 -90.4769 278° West 170 196 6,000  Level Chicago Center
Wed 01:28:52 PM 40.6339 -90.5392 280° West 171 197 6,000  Level Chicago Center
Wed 01:29:54 PM 40.6436 -90.6133 280° West 172 198 6,000  Level Chicago Center
Wed 01:30:56 PM 40.6506 -90.6769 278° West 174 200 6,000  Level Chicago Center
Wed 01:31:58 PM 40.6586 -90.7394 280° West 174 200 6,000  Level Chicago Center
Wed 01:33:00 PM 40.6664 -90.8014 279° West 172 198 6,000  Level Chicago Center
Wed 01:34:02 PM 40.6783 -90.8606 285° West 169 194 6,000  Level Chicago Center
Wed 01:35:04 PM 40.6872 -90.9206 281° West 168 193 6,000  Level Chicago Center
Wed 01:36:06 PM 40.6872 -90.9950 270° West 169 194 6,000  Level Chicago Center
Wed 01:37:08 PM 40.6967 -91.0558 282° West 169 194 6,000 -48 Level Chicago Center
Wed 01:38:10 PM 40.7203 -91.1108 300° West 167 192 5,900  Descending Chicago Center
Wed 01:39:12 PM 40.7183 -91.1725 268° West 167 192 6,000 48 Climbing Chicago Center
Wed 01:40:14 PM 40.7331 -91.2303 289° West 164 189 6,000 48 Level Chicago Center
Wed 01:41:17 PM 40.7489 -91.2867 290° West 165 190 6,100 48 Climbing Chicago Center
Wed 01:42:19 PM 40.7436 -91.3547 264° West 170 196 6,100  Level Chicago Center
Wed 01:43:21 PM 40.7511 -91.4150 279° West 167 192 6,100  Level Chicago Center
Wed 01:44:23 PM 40.7608 -91.4875 280° West 168 193 6,100 48 Level Chicago Center
Wed 01:45:25 PM 40.7642 -91.5456 274° West 164 189 6,200 48 Climbing Chicago Center
Wed 01:46:27 PM 40.7692 -91.6072 276° West 168 193 6,200 194 Level Chicago Center
Wed 01:47:29 PM 40.7831 -91.6603 289° West 158 182 6,600 387 Climbing Chicago Center
Wed 01:48:31 PM 40.7856 -91.7139 274° West 151 174 7,000 194 Climbing Chicago Center
Wed 01:49:33 PM 40.7931 -91.7797 279° West 151 174 7,000  Level Chicago Center
Wed 01:50:35 PM 40.8039 -91.8361 284° West 157 181 7,000  Level Chicago Center
Wed 01:51:37 PM 40.8183 -91.8911 289° West 158 182 7,000  Level Chicago Center
Wed 01:52:40 PM 40.8286 -91.9478 283° West 160 184 7,000  Level Chicago Center
Wed 01:53:42 PM 40.8422 -92.0156 285° West 161 185 7,000  Level Chicago Center
Wed 01:54:44 PM 40.8469 -92.0728 276° West 160 184 7,000  Level Chicago Center
Wed 01:55:46 PM 40.8536 -92.1292 279° West 158 182 7,000  Level Chicago Center
Wed 01:56:48 PM 40.8608 -92.1839 280° West 155 178 7,000  Level Chicago Center
Wed 01:57:50 PM 40.8661 -92.2408 277° West 156 180 7,000  Level Chicago Center
Wed 01:58:52 PM 40.8728 -92.3072 278° West 155 178 7,000  Level Chicago Center
Wed 01:59:54 PM 40.8792 -92.3633 279° West 155 178 7,000  Level Chicago Center
Wed 02:00:56 PM 40.8894 -92.4186 284° West 156 180 7,000  Level Chicago Center
Wed 02:01:58 PM 40.8914 -92.4761 273° West 157 181 7,000 -48 Level Chicago Center
Wed 02:03:00 PM 40.8856 -92.5344 262° West 160 184 6,900  Descending Chicago Center
Wed 02:04:03 PM 40.9000 -92.6006 286° West 158 182 7,000 48 Climbing Chicago Center
Wed 02:05:05 PM 40.9086 -92.6561 282° West 156 180 7,000  Level Chicago Center
Wed 02:06:07 PM 40.9122 -92.7131 275° West 156 180 7,000  Level Chicago Center
Wed 02:07:09 PM 40.9222 -92.7683 283° West 156 180 7,000 48 Level Chicago Center
Wed 02:08:11 PM 40.9278 -92.8369 276° West 157 181 7,100  Climbing Chicago Center
Wed 02:09:13 PM 40.9317 -92.8953 275° West 158 182 7,000 -48 Descending Chicago Center
Wed 02:10:15 PM 40.9394 -92.9514 280° West 158 182 7,000  Level Chicago Center
Wed 02:11:17 PM 40.9489 -93.0081 282° West 159 183 7,000  Level Chicago Center
Wed 02:12:19 PM 40.9503 -93.0639 272° West 158 182 7,000 -48 Level Chicago Center
Wed 02:13:21 PM 40.9481 -93.1317 268° West 156 180 6,900  Descending Chicago Center
Wed 02:14:23 PM 40.9606 -93.1853 287° West 156 180 7,000 48 Climbing Chicago Center
Wed 02:15:25 PM 40.9650 -93.2386 276° West 151 174 7,000  Level Chicago Center
Wed 02:16:28 PM 40.9708 -93.2925 278° West 149 171 7,000  Level Chicago Center
Wed 02:17:30 PM 40.9764 -93.3486 277° West 152 175 7,000  Level Chicago Center
Wed 02:18:09 PM 40.9856 -93.3825 290° West 152 175 7,000 -59 Level Minneapolis Center
Wed 02:19:12 PM 40.9903 -93.4511 275° West 154 177 6,900 -48 Descending Minneapolis Center
Wed 02:20:14 PM 40.9933 -93.5075 274° West 154 177 6,900 48 Level Minneapolis Center
Wed 02:21:16 PM 41.0008 -93.5672 279° West 152 175 7,000 48 Climbing Minneapolis Center
Wed 02:22:18 PM 41.0042 -93.6222 275° West 151 174 7,000  Level Minneapolis Center
Wed 02:23:20 PM 41.0103 -93.6819 278° West 152 175 7,000  Level Minneapolis Center
Wed 02:24:22 PM 41.0153 -93.7378 277° West 152 175 7,000  Level Minneapolis Center
Wed 02:25:24 PM 41.0197 -93.7933 276° West 152 175 7,000 -48 Level Minneapolis Center
Wed 02:26:26 PM 41.0275 -93.8533 280° West 154 177 6,900 -48 Descending Minneapolis Center
Wed 02:27:28 PM 41.0300 -93.9103 273° West 155 178 6,900  Level Minneapolis Center
Wed 02:28:31 PM 41.0342 -93.9708 275° West 155 178 6,900  Level Minneapolis Center
Wed 02:29:33 PM 41.0419 -94.0275 280° West 156 180 6,900 32 Level Minneapolis Center
Wed 02:31:37 PM 41.0517 -94.1442 276° West 155 178 7,000 32 Climbing Minneapolis Center
Wed 02:32:38 PM 41.0553 -94.1919 276° West 155 178 7,000  Level Minneapolis Center
Wed 02:33:41 PM 41.0589 -94.2611 274° West 159 183 7,000  Level Minneapolis Center
Wed 02:34:43 PM 41.0653 -94.3164 279° West 157 181 7,000  Level Minneapolis Center
Wed 02:35:45 PM 41.0692 -94.3767 275° West 155 178 7,000  Level Minneapolis Center
Wed 02:36:47 PM 41.0750 -94.4400 277° West 155 178 7,000 -145 Level Minneapolis Center
Wed 02:37:49 PM 41.0803 -94.5011 277° West 158 182 6,700 -339 Descending Minneapolis Center
Wed 02:38:51 PM 41.0831 -94.5606 274° West 162 186 6,300 -290 Descending Minneapolis Center
Wed 02:39:53 PM 41.0886 -94.6197 277° West 169 194 6,100 -97 Descending Minneapolis Center
Wed 02:40:55 PM 41.0942 -94.6922 276° West 169 194 6,100  Level Minneapolis Center
Wed 02:41:58 PM 41.0972 -94.7511 274° West 164 189 6,100  Level Minneapolis Center
Wed 02:43:00 PM 41.1022 -94.8089 277° West 161 185 6,100  Level Minneapolis Center
Wed 02:44:02 PM 41.1083 -94.8658 278° West 158 182 6,100  Level Minneapolis Center
Wed 02:45:04 PM 41.1122 -94.9247 275° West 159 183 6,100 -99 Level Minneapolis Center
Wed 02:46:03 PM 41.1272 -94.9919 287° West 161 185 5,900  Descending Minneapolis Center
Wed 02:47:08 PM 41.1197 -95.0539 261° West 159 183 6,100 47 Climbing Minneapolis Center
Wed 02:48:10 PM 41.1342 -95.1131 288° West 161 185 6,000  Descending Minneapolis Center
Wed 02:49:12 PM 41.1292 -95.1711 263° West 160 184 6,100  Climbing Minneapolis Center
Wed 02:50:12 PM 41.1408 -95.2369 283° West 162 186 6,000  Descending Minneapolis Center
Wed 02:51:16 PM 41.1367 -95.2911 264° West 162 186 6,100 -49 Climbing Minneapolis Center
Wed 02:52:14 PM 41.1472 -95.3553 282° West 163 188 5,900 -102 Descending Minneapolis Center
Wed 02:53:14 PM 41.1517 -95.4156 276° West 163 188 5,900 50 Level Minneapolis Center
Wed 02:54:15 PM 41.1536 -95.4761 272° West 164 189 6,000 49 Climbing Minneapolis Center
Wed 02:55:16 PM 41.1581 -95.5394 275° West 164 189 6,000  Level Minneapolis Center
Wed 02:56:17 PM 41.1622 -95.5997 275° West 162 186 6,000 -50 Level Minneapolis Center
Wed 02:57:17 PM 41.1703 -95.6569 281° West 160 184 5,900  Descending Minneapolis Center
Wed 02:58:12 PM 41.1803 -95.7111 284° West 162 186 6,000 52 Climbing Minneapolis Center
Wed 02:59:13 PM 41.1864 -95.7686 278° West 162 186 6,000  Level Minneapolis Center
Wed 03:00:14 PM 41.1883 -95.8294 272° West 165 190 6,000  Level Minneapolis Center
Wed 03:01:15 PM 41.1925 -95.8925 275° West 163 188 6,000 -41 Level Minneapolis Center
Wed 03:02:39 PM 41.1967 -95.9700 274° West 163 188 5,900 -50 Descending Minneapolis Center
Wed 03:03:16 PM 41.1919 -96.0117 261° West 166 191 5,900 65 Level Minneapolis Center
Wed 03:04:11 PM 41.1936 -96.0669 272° West 162 186 6,000 69 Climbing Minneapolis Center
Wed 03:04:43 PM 41.1950 -96.0914 274° West 163 188 6,000 -191 Level Minneapolis Center
Wed 03:05:45 PM 41.1992 -96.1519 275° West 164 189 5,700 -387 Descending Minneapolis Center
Wed 03:06:47 PM 41.2006 -96.2169 272° West 169 194 5,200 -574 Descending Minneapolis Center
Wed 03:07:19 PM 41.1917 -96.2667 257° West 181 208 4,800 -581 Descending Minneapolis Center
Wed 03:07:49 PM 41.1964 -96.2842 290° West 174 200 4,600 -516 Descending Minneapolis Center
Wed 03:08:52 PM 41.1928 -96.3608 266° West 179 206 4,000 -571 Descending Minneapolis Center

Login

Don't have an account? Register now (free) for customized features, flight alerts, and more!